메인 페이지
METAR-TAF:

METAR-TAF

공항 :

무르탈라 모하메드 국제공항

라고스, 나이지리아

위도: 06-35N, 경도: 003-20E, 고도: 40m

현재 날씨관측

예보는 1 시간 20분 전, 22:00시(UTC)에 발표되었습니다.
여러 방향의 바람 2kt
온도 28°C
습도 94%
기압 1012 hPa
시정 10km 이상
고도 1200ft 상공 구름 보통

METAR: DNMM 312200Z VRB02KT 9999 SCT012 28/27 Q1012 NOSIG

시각: 00:20 (23:20 UTC)

예보

예보는 6 시간 20분 전, 17:00시(UTC)에 발표되었습니다.
예보 대상 시간: 31일 18시부터 01일 24시까지 (UTC)
여러 방향의 바람 2kt
시정 10km 이상
고도 1100ft 상공 구름 보통
확률 30%
31일 21시부터 01일 02시까지 (UTC)
고도 1100ft 상공 구름 보통
고도 2000ft 상공 구름 조금, 적란운.
뇌우
전환 중
01일 08시부터 01일 10시까지 (UTC)
남서10kt
고도 1400ft 상공 구름 많음
일시적
01일 15시부터 01일 18시까지 (UTC)
고도 1400ft 상공 구름 보통
고도 2000ft 상공 구름 조금, 적란운.
전환 중
01일 19시부터 01일 21시까지 (UTC)
여러 방향의 바람 2kt
고도 1100ft 상공 구름 보통

TAF: DNMM 311700Z 3118/0124 VRB02KT 9999 SCT011 PROB30 3121/0102 TS SCT011 FEW020CB BECMG 0108/0110 22010KT BKN014 TEMPO 0115/0118 SCT014 FEW020CB BECMG 0119/0121 VRB02KT SCT011

4,000개 이상의 공항 관측 자료 및 예보 (METAR 및 TAF 보고).

지도상에서 검색 가능한 기상관측소가 노란 점과 빨간 점으로 표시되어 있습니다.

기상관측소 명을 보려면 표시 위로 마우스를 이동하세요.

날씨 관측과 예보를 보려면 클릭하세요.

지도 변경 : 확대하려면 엑스 표시가 있는 녹색 버튼, 축소하려면 빼기 표시가 있는 녹색 버튼, 다음 페이지의 지도를 보려면 녹색 화살표를 클릭하세요.


METAR-TAF: